Portada
METAR-TAF:

METAR-TAF

Aeroports :

Midway, Estats Units d'Amèrica

latitud: 28-13N, longitud: 177-22W, altitud: 4 m

Observació

L'informe es va fer fa 55 minuts, a les 10:56 UTC
Vent 3 kt del Sud
Temperatura 24°C
Humitat 83%
Pressió 1017 hPa
Visibilitat: 12.9 km
Cel clar

METAR: PMDY 231056Z AUTO 19003KT 8SM CLR 24/21 A3002 RMK AO2 SLP165 T02390211 402670217

Hora: 01:51 (11:51 UTC)

Pronòstic

L'informe es va fer fa 24 minuts, a les 11:27 UTC
Pronòstic vàlid del 23 a les 12 UTC al 24 a les 12 UTC
Vent 5 kt amb direcció variable
Visibilitat: 10 km
Núvols disperses a una alçada de 2000 ft
Cel ennuvolat a una alçada de 3500 ft

TAF: PMDY 231127Z 2312/2412 VRB05KT P6SM SCT020 BKN035

Observacions i pronòstics meteorològics de més de 4000 aeroports (METAR i TAF).

Les estacions disponibles són els punts grocs i vermells al mapa.

Posi el ratolí al punt desitjat per veure el nom de l'estació.

Feu clic per veure les observacions i els pronòstics meteorològics.

Per canviar el mapa: feu clic els botons verds amb una creu de color negre per apropar; al botó verd amb un guió per allunyar la imatge; o en les fletxes verdes per a mapes adjacents.


METAR-TAF: